METAR AND TAF INFORMATION
METAR FOR OBBI
ADDS - METARS form results

(2248 UTC 25 January 2021)
Data provider http://aviationweather.gov/metar/data/
 
METAR text: OBBI 252230Z 29005KT 7000 SKC 17/15 Q1020 BECMG 5000 HZ
Conditions at: OBBI (BAHRAIN INTL ARP, BH) observed 2230 UTC 25 January 2021
Temperature: 17.0°C (63°F)
Dewpoint: 15.0°C (59°F) [RH = 88%]
Pressure (altimeter): 30.12 inches Hg (1020.0 mb)
Winds: from the WNW (290 degrees) at 6 MPH (5 knots; 2.6 m/s)
Visibility: 4 miles ( 7 km)
Ceiling: at least 12,000 feet AGL
Clouds: clear skies
Weather: no significant weather observed at this time

METAR text: OBBI 252200Z 28005KT 8000 SKC 17/15 Q1021 NOSIG
Conditions at: OBBI (BAHRAIN INTL ARP, BH) observed 2200 UTC 25 January 2021
Temperature: 17.0°C (63°F)
Dewpoint: 15.0°C (59°F) [RH = 88%]
Pressure (altimeter): 30.15 inches Hg (1021.0 mb)
Winds: from the W (280 degrees) at 6 MPH (5 knots; 2.6 m/s)
Visibility: 5 miles ( 8 km)
Ceiling: at least 12,000 feet AGL
Clouds: clear skies
Weather: no significant weather observed at this time

Forecast for: AMD
Text: TAF AMD OBBI 252223Z 2600/2706 29008KT 8000 NSC
Forecast period: 0000 UTC 26 January 2021 to 0600 UTC 27 January 2021
Forecast type: FROM: standard forecast or significant change
Winds: from the WNW (290 degrees) at 9 MPH (8 knots; 4.1 m/s)
Visibility: 5 miles (8 km)
Ceiling: unknown
Clouds: missing
Weather: no significant weather forecast for this period
Text: PROB30
Forecast period: 0000 to 0600 UTC 26 January 2021
Forecast type: TEMPORARY: The following changes expected for less than half the time period
Visibility: 2.49 miles (4.01 km)
Ceiling: unknown
Clouds: missing
Weather: HZ  (haze)
Text: TEMPO 2600/2606 4000 HZ
Forecast period: 0000 to 0600 UTC 27 January 2021
Forecast type: TEMPORARY: The following changes expected for less than half the time period
Visibility: 2.49 miles (4.01 km)
Ceiling: unknown
Clouds: missing
Weather: HZ  (haze)

 AIRPORT MAP

 RUNWAY INFORMATION
Runway 12L Runway length 12979 ft Runway width 197 ft
Runway elevation 6 ft Runway displaced threshold 1000 ft Runway heading 123
Runway 30R Runway length 12979 ft Runway width 197 ft
Runway elevation 6 ft Runway displaced threshold 1000 ft Runway heading 303
Runway 12R Runway length 8302 ft Runway width 148 ft
Runway elevation 7 ft Runway displaced threshold 1000 ft Runway heading 123
Runway 30L Runway length 8302 ft Runway width 148 ft
Runway elevation 6 ft Runway displaced threshold 395 ft Runway heading 303

 AIRPORT FREQUENCIES
Type APP Name APP Frequency 127.85 MHZ
Type ATIS Name ATIS Frequency 127.2 MHZ
Type GND Name GND Frequency 121.675 MHZ
Type OPS Name ATOC Frequency 32.175 MHZ
Type TWR Name TWR Frequency 118.5 MHZ

 AIRPORT NEAR NAVIGATION AIDS
Type VOR-DME Name Bahrain Frequency 115300 KHZ
Type NDB Name Bahrain Frequency 395 KHZ



Powered by Virtual Airlines Manager [v2.6.2]